createdAt,value
2022-12-05T00:01:47.610Z,3.27
2022-12-05T00:04:14.986Z,3.29
2022-12-05T00:06:43.861Z,3.27
2022-12-05T00:09:12.473Z,3.30
2022-12-05T00:11:40.973Z,3.28
2022-12-05T00:14:09.144Z,3.30
2022-12-05T00:16:37.634Z,3.29
2022-12-05T00:19:08.339Z,3.30
2022-12-05T00:21:36.559Z,3.31
2022-12-05T00:24:05.241Z,3.32
2022-12-05T00:26:32.388Z,3.31
2022-12-05T00:28:59.111Z,3.30
2022-12-05T00:31:27.612Z,3.31
2022-12-05T00:33:55.520Z,3.31
2022-12-05T00:36:25.645Z,3.32
2022-12-05T00:38:53.465Z,3.32
2022-12-05T00:41:22.124Z,3.32
2022-12-05T00:43:49.046Z,3.33
2022-12-05T00:46:18.065Z,3.32
2022-12-05T00:48:45.583Z,3.32
2022-12-05T00:51:15.415Z,3.32
2022-12-05T00:53:44.567Z,3.30
2022-12-05T00:56:13.249Z,3.31
2022-12-05T00:58:40.092Z,3.31
2022-12-05T01:01:07.770Z,3.28
2022-12-05T01:03:34.567Z,3.32
2022-12-05T01:06:01.536Z,3.32
2022-12-05T01:08:28.610Z,3.30
2022-12-05T01:10:57.942Z,3.34
2022-12-05T01:13:26.054Z,3.34
2022-12-05T01:15:52.930Z,3.34
2022-12-05T01:18:20.963Z,3.34
2022-12-05T01:20:48.411Z,3.34
2022-12-05T01:23:16.211Z,3.35
2022-12-05T01:25:44.789Z,3.35
2022-12-05T01:28:13.752Z,3.36
2022-12-05T01:30:41.962Z,3.38
2022-12-05T01:33:09.143Z,3.34
2022-12-05T01:35:38.125Z,3.35
2022-12-05T01:38:05.894Z,3.39
2022-12-05T01:40:33.846Z,3.37
2022-12-05T01:43:00.497Z,3.38
2022-12-05T01:45:33.725Z,3.37
2022-12-05T01:48:03.998Z,3.36
2022-12-05T01:50:32.013Z,3.36
2022-12-05T01:52:58.841Z,3.36
2022-12-05T01:55:26.002Z,3.36
2022-12-05T01:57:53.361Z,3.37
2022-12-05T02:00:21.212Z,3.36
2022-12-05T02:02:53.032Z,3.38
2022-12-05T02:05:23.030Z,3.36
2022-12-05T02:07:50.250Z,3.39
2022-12-05T02:10:17.236Z,3.41
2022-12-05T02:12:45.029Z,3.40
2022-12-05T02:15:27.390Z,3.40
2022-12-05T02:18:08.164Z,3.41
2022-12-05T02:20:45.488Z,3.42
2022-12-05T02:23:26.214Z,3.44
2022-12-05T02:26:34.131Z,3.44
2022-12-05T02:29:23.225Z,3.46
2022-12-05T02:31:58.895Z,3.46
2022-12-05T02:34:34.538Z,3.47
2022-12-05T02:37:07.315Z,3.46
2022-12-05T02:39:44.244Z,3.46
2022-12-05T02:42:15.563Z,3.43
2022-12-05T02:44:47.520Z,3.45
2022-12-05T02:47:19.813Z,3.46
2022-12-05T02:49:47.971Z,3.45
2022-12-05T02:52:16.807Z,3.46
2022-12-05T02:54:48.032Z,3.47
2022-12-05T02:57:15.421Z,3.51
2022-12-05T02:59:42.290Z,3.51
2022-12-05T03:02:22.152Z,3.51
2022-12-05T03:04:50.408Z,3.51
2022-12-05T03:07:19.738Z,3.49
2022-12-05T03:09:51.236Z,3.51
2022-12-05T03:12:20.693Z,3.50
2022-12-05T03:14:52.696Z,3.52
2022-12-05T03:17:24.846Z,3.52
2022-12-05T03:19:58.423Z,3.52
2022-12-05T03:22:32.645Z,3.54
2022-12-05T03:25:02.310Z,3.53
2022-12-05T03:27:34.202Z,3.53
2022-12-05T03:30:05.222Z,3.53
2022-12-05T03:32:41.715Z,3.54
2022-12-05T03:35:15.428Z,3.54
2022-12-05T03:37:51.578Z,3.55
2022-12-05T03:40:26.779Z,3.54
2022-12-05T03:42:58.785Z,3.57
2022-12-05T03:45:31.657Z,3.56
2022-12-05T03:48:07.931Z,3.56
2022-12-05T03:50:39.784Z,3.55
2022-12-05T03:53:19.646Z,3.55
2022-12-05T03:55:54.477Z,3.55
2022-12-05T03:58:27.897Z,3.55
2022-12-05T04:00:57.307Z,3.55
2022-12-05T04:03:30.388Z,3.57
2022-12-05T04:06:01.505Z,3.56
2022-12-05T04:08:31.664Z,3.56
2022-12-05T04:11:02.537Z,3.54
2022-12-05T04:13:34.469Z,3.54
2022-12-05T04:16:05.745Z,3.55
2022-12-05T04:18:34.286Z,3.54
2022-12-05T04:21:04.140Z,3.56
2022-12-05T04:23:30.935Z,3.56
2022-12-05T04:26:07.285Z,3.58
2022-12-05T04:28:38.938Z,3.57
2022-12-05T04:31:09.544Z,3.55
2022-12-05T04:33:43.062Z,3.55
2022-12-05T04:36:15.309Z,3.56
2022-12-05T04:38:48.673Z,3.58
2022-12-05T04:41:22.153Z,3.56
2022-12-05T04:43:50.739Z,3.58
2022-12-05T04:46:19.933Z,3.58
2022-12-05T04:48:52.683Z,3.58
2022-12-05T04:51:22.904Z,3.57
2022-12-05T04:54:00.535Z,3.59
2022-12-05T04:56:33.079Z,3.59
2022-12-05T04:59:00.059Z,3.59
2022-12-05T05:01:34.555Z,3.59
2022-12-05T05:04:07.596Z,3.57
2022-12-05T05:06:37.385Z,3.58
2022-12-05T05:09:04.368Z,3.57
2022-12-05T05:11:33.344Z,3.57
2022-12-05T05:14:00.272Z,3.56
2022-12-05T05:16:29.397Z,3.57
2022-12-05T05:18:56.899Z,3.57
2022-12-05T05:21:26.261Z,3.58
2022-12-05T05:23:55.322Z,3.58
2022-12-05T05:26:23.083Z,3.60
2022-12-05T05:28:50.465Z,3.57
2022-12-05T05:31:18.200Z,3.57
2022-12-05T05:33:48.141Z,3.55
2022-12-05T05:36:16.942Z,3.55
2022-12-05T05:38:45.310Z,3.56
2022-12-05T05:41:15.346Z,3.55
2022-12-05T05:43:42.869Z,3.53
2022-12-05T05:46:09.911Z,3.53
2022-12-05T05:48:36.649Z,3.52
2022-12-05T05:51:04.328Z,3.53
2022-12-05T05:53:31.515Z,3.51
2022-12-05T05:56:02.453Z,3.52
2022-12-05T05:58:30.627Z,3.49
2022-12-05T06:01:03.134Z,3.50
2022-12-05T06:03:29.957Z,3.55
2022-12-05T06:05:57.577Z,3.53
2022-12-05T06:08:24.196Z,3.53
2022-12-05T06:10:50.777Z,3.54
2022-12-05T06:13:17.403Z,3.54
2022-12-05T06:15:45.432Z,3.52
2022-12-05T06:18:12.114Z,3.50
2022-12-05T06:20:38.809Z,3.52
2022-12-05T06:23:05.457Z,3.52
2022-12-05T06:25:32.052Z,3.54
2022-12-05T06:27:58.816Z,3.53
2022-12-05T06:30:25.502Z,3.52
2022-12-05T06:32:53.519Z,3.51
2022-12-05T06:35:20.104Z,3.50
2022-12-05T06:37:46.980Z,3.50
2022-12-05T06:40:14.322Z,3.51
2022-12-05T06:42:41.087Z,3.51
2022-12-05T06:45:08.439Z,3.48
2022-12-05T06:47:35.178Z,3.49
2022-12-05T06:50:03.857Z,3.49
2022-12-05T06:52:30.589Z,3.50
2022-12-05T06:54:58.475Z,3.51
2022-12-05T06:57:25.100Z,3.48
2022-12-05T06:59:51.836Z,3.49
2022-12-05T07:02:18.572Z,3.49
2022-12-05T07:04:45.563Z,3.52
2022-12-05T07:07:13.658Z,3.53
2022-12-05T07:09:40.274Z,3.52
2022-12-05T07:12:07.041Z,3.51
2022-12-05T07:14:50.021Z,3.53
2022-12-05T07:17:17.558Z,3.51
2022-12-05T07:19:44.116Z,3.53
2022-12-05T07:22:15.521Z,3.52
2022-12-05T07:24:44.628Z,3.53
2022-12-05T07:27:11.829Z,3.52
2022-12-05T07:29:38.699Z,3.56
2022-12-05T07:32:05.873Z,3.52
2022-12-05T07:34:32.497Z,3.53
2022-12-05T07:36:59.797Z,3.53
2022-12-05T07:39:27.185Z,3.51
2022-12-05T07:41:55.187Z,3.52
2022-12-05T07:44:21.828Z,3.51
2022-12-05T07:46:48.450Z,3.48
2022-12-05T07:49:15.310Z,3.50
2022-12-05T07:51:41.852Z,3.46
2022-12-05T07:54:08.482Z,3.44
2022-12-05T07:56:35.116Z,3.46
2022-12-05T07:59:03.109Z,3.46
2022-12-05T08:01:30.266Z,3.47
2022-12-05T08:03:58.755Z,3.47
2022-12-05T08:06:29.451Z,3.47
2022-12-05T08:08:57.293Z,3.47
2022-12-05T08:11:26.109Z,3.48
2022-12-05T08:13:53.447Z,3.51
2022-12-05T08:16:24.932Z,3.53
2022-12-05T08:18:54.766Z,3.51
2022-12-05T08:21:21.382Z,3.50
2022-12-05T08:23:48.172Z,3.51
2022-12-05T08:26:16.817Z,3.53
2022-12-05T08:28:44.585Z,3.55
2022-12-05T08:31:13.137Z,3.54
2022-12-05T08:33:42.081Z,3.56
2022-12-05T08:36:11.651Z,3.56
2022-12-05T08:38:38.437Z,3.60
2022-12-05T08:41:06.724Z,3.57
2022-12-05T08:43:33.783Z,3.54
2022-12-05T08:46:01.362Z,3.55
2022-12-05T08:48:29.959Z,3.55
2022-12-05T08:50:59.052Z,3.55
2022-12-05T08:53:25.835Z,3.49
2022-12-05T08:55:52.460Z,3.51
2022-12-05T08:58:19.252Z,3.52
2022-12-05T09:00:45.821Z,3.52
2022-12-05T09:03:12.565Z,3.47
2022-12-05T09:05:39.516Z,3.49
2022-12-05T09:08:07.537Z,3.51
2022-12-05T09:10:37.537Z,3.53
2022-12-05T09:13:04.170Z,3.37
2022-12-05T09:15:30.807Z,3.35
2022-12-05T09:17:57.379Z,3.28
2022-12-05T09:20:23.988Z,3.26
2022-12-05T09:22:52.272Z,3.17
2022-12-05T09:25:20.349Z,3.19
2022-12-05T09:27:46.996Z,3.12
2022-12-05T09:30:15.057Z,3.16
2022-12-05T09:32:41.651Z,3.16
2022-12-05T09:35:08.725Z,3.19
2022-12-05T09:37:39.931Z,3.18
2022-12-05T09:40:15.341Z,3.17
2022-12-05T09:42:56.334Z,3.25
2022-12-05T09:45:28.338Z,3.30
2022-12-05T09:47:59.754Z,3.29
2022-12-05T09:50:29.383Z,3.29
2022-12-05T09:53:19.194Z,3.36
2022-12-05T09:55:49.298Z,3.37
2022-12-05T09:58:39.908Z,3.38
2022-12-05T10:01:27.336Z,3.43
2022-12-05T10:04:16.292Z,3.44
2022-12-05T10:06:50.036Z,3.41
2022-12-05T10:09:44.485Z,3.45
2022-12-05T10:12:20.082Z,3.47
2022-12-05T10:15:01.305Z,3.47
2022-12-05T10:17:33.270Z,3.42
2022-12-05T10:20:05.244Z,3.45
2022-12-05T10:22:42.290Z,3.49
2022-12-05T10:25:12.540Z,3.51
2022-12-05T10:27:45.027Z,3.54
2022-12-05T10:30:16.405Z,3.55
2022-12-05T10:32:50.894Z,3.59
2022-12-05T10:35:21.136Z,3.61
2022-12-05T10:37:49.879Z,3.59
2022-12-05T10:40:17.167Z,3.60
2022-12-05T10:42:44.923Z,3.55
2022-12-05T10:45:18.791Z,3.54
2022-12-05T10:47:46.838Z,3.55
2022-12-05T10:50:23.057Z,3.55
2022-12-05T10:52:51.592Z,3.55
2022-12-05T10:55:18.685Z,3.57
2022-12-05T10:57:50.835Z,3.55
2022-12-05T11:00:22.941Z,3.51
2022-12-05T11:02:50.287Z,3.56
2022-12-05T11:05:28.613Z,3.57
2022-12-05T11:07:56.752Z,3.54
2022-12-05T11:10:27.575Z,3.55
2022-12-05T11:12:56.478Z,3.53
2022-12-05T11:15:26.895Z,3.47
2022-12-05T11:17:55.265Z,3.43
2022-12-05T11:20:40.313Z,3.46
2022-12-05T11:23:26.991Z,3.43
2022-12-05T11:25:54.998Z,3.40
2022-12-05T11:28:45.803Z,3.42
2022-12-05T11:31:27.450Z,3.44
2022-12-05T11:34:13.533Z,3.43
2022-12-05T11:36:44.319Z,3.37
2022-12-05T11:39:12.865Z,3.35
2022-12-05T11:42:04.537Z,3.40
2022-12-05T11:44:47.922Z,3.41
2022-12-05T11:47:39.930Z,3.39
2022-12-05T11:50:22.114Z,3.43
2022-12-05T11:53:00.821Z,3.43
2022-12-05T11:55:33.292Z,3.42
2022-12-05T11:58:20.369Z,3.47
2022-12-05T12:01:01.853Z,3.51
2022-12-05T12:03:56.839Z,3.51
2022-12-05T12:06:28.691Z,3.48
2022-12-05T12:09:11.677Z,3.51
2022-12-05T12:11:46.846Z,3.42
2022-12-05T12:14:19.634Z,3.36
2022-12-05T12:16:49.059Z,3.44
2022-12-05T12:19:30.259Z,3.34
2022-12-05T12:22:15.407Z,3.34
2022-12-05T12:25:01.148Z,3.32
2022-12-05T12:27:39.467Z,3.28
2022-12-05T12:30:13.276Z,3.27
2022-12-05T12:32:45.386Z,3.27
2022-12-05T12:35:41.895Z,3.27
2022-12-05T12:38:20.839Z,3.21
2022-12-05T12:40:50.345Z,3.22
2022-12-05T12:43:53.240Z,3.21
2022-12-05T12:46:32.557Z,3.23
2022-12-05T12:49:15.429Z,3.28
2022-12-05T12:51:50.301Z,3.29
2022-12-05T12:55:02.147Z,3.30
2022-12-05T12:57:25.989Z,3.31
2022-12-05T12:59:58.635Z,3.37
2022-12-05T13:02:33.602Z,3.35
2022-12-05T13:05:06.629Z,3.29
2022-12-05T13:07:41.146Z,3.35
2022-12-05T13:10:15.664Z,3.33
2022-12-05T13:12:44.340Z,3.33
2022-12-05T13:15:16.489Z,3.38
2022-12-05T13:17:45.443Z,3.32
2022-12-05T13:20:16.359Z,3.40
2022-12-05T13:22:45.418Z,3.38
2022-12-05T13:25:14.739Z,3.37
2022-12-05T13:27:54.390Z,3.39
2022-12-05T13:30:21.405Z,3.40
2022-12-05T13:32:56.397Z,3.37
2022-12-05T13:35:31.244Z,3.38
2022-12-05T13:37:59.280Z,3.37
2022-12-05T13:40:29.227Z,3.35
2022-12-05T13:43:02.064Z,3.33
2022-12-05T13:45:29.341Z,3.32
2022-12-05T13:48:10.625Z,3.30
2022-12-05T13:50:46.955Z,3.19
2022-12-05T13:53:28.743Z,3.24
2022-12-05T13:55:59.451Z,3.25
2022-12-05T13:58:45.370Z,3.22
2022-12-05T14:01:52.019Z,3.23
2022-12-05T14:04:44.567Z,3.23
2022-12-05T14:07:11.645Z,3.21
2022-12-05T14:09:52.298Z,3.23
2022-12-05T14:12:48.339Z,3.24
2022-12-05T14:15:33.505Z,3.23
2022-12-05T14:18:04.721Z,3.25
2022-12-05T14:21:03.861Z,3.20
2022-12-05T14:24:01.345Z,3.22
2022-12-05T14:26:56.853Z,3.18
2022-12-05T14:29:38.080Z,3.22
2022-12-05T14:32:16.322Z,3.19
2022-12-05T14:34:54.580Z,3.19
2022-12-05T14:37:27.204Z,3.17
2022-12-05T14:39:57.267Z,3.16
2022-12-05T14:42:34.920Z,3.12
2022-12-05T14:45:17.084Z,3.14
2022-12-05T14:47:51.464Z,3.17
2022-12-05T14:50:33.209Z,3.17
2022-12-05T14:53:31.489Z,3.14
2022-12-05T14:56:06.785Z,3.12
2022-12-05T14:58:40.365Z,3.12
2022-12-05T15:01:13.562Z,3.08
2022-12-05T15:03:43.892Z,3.04
2022-12-05T15:06:14.853Z,3.02
2022-12-05T15:08:46.852Z,3.01
2022-12-05T15:11:16.436Z,2.98
2022-12-05T15:13:44.658Z,2.99
2022-12-05T15:16:19.161Z,2.96
2022-12-05T15:18:49.296Z,2.93
2022-12-05T15:21:23.786Z,2.94
2022-12-05T15:23:57.250Z,2.95
2022-12-05T15:29:17.565Z,2.99
2022-12-05T15:31:47.117Z,2.97
2022-12-05T15:34:18.273Z,2.94
2022-12-05T15:36:50.346Z,2.93
2022-12-05T15:39:20.254Z,2.91
2022-12-05T15:41:46.960Z,2.90
2022-12-05T15:44:15.036Z,2.91
2022-12-05T15:46:42.138Z,2.88
2022-12-05T15:49:17.388Z,2.87
2022-12-05T15:51:46.960Z,2.83
2022-12-05T15:54:17.705Z,2.87
2022-12-05T15:56:48.934Z,2.86
2022-12-05T15:59:21.152Z,2.83
2022-12-05T16:01:52.047Z,2.85
2022-12-05T16:04:29.340Z,2.87
2022-12-05T16:07:00.649Z,2.83
2022-12-05T16:09:32.244Z,2.82
2022-12-05T16:12:02.075Z,2.86
2022-12-05T16:14:58.933Z,2.86
2022-12-05T16:17:21.889Z,2.83
2022-12-05T16:19:48.769Z,2.87
2022-12-05T16:22:22.162Z,2.86
2022-12-05T16:24:55.623Z,2.84
2022-12-05T16:27:24.151Z,2.79
2022-12-05T16:30:23.240Z,2.86
2022-12-05T16:32:59.372Z,2.83
2022-12-05T16:35:32.773Z,2.86
2022-12-05T16:38:09.292Z,2.90
2022-12-05T16:40:36.663Z,2.88
2022-12-05T16:43:05.421Z,2.86
2022-12-05T16:45:39.844Z,2.85
2022-12-05T16:48:18.581Z,2.90
2022-12-05T16:50:45.645Z,2.86
2022-12-05T16:53:20.320Z,2.89
2022-12-05T16:55:47.940Z,2.90
2022-12-05T16:58:20.462Z,2.87
2022-12-05T17:00:47.068Z,2.90
2022-12-05T17:03:33.386Z,2.91
2022-12-05T17:06:00.900Z,2.89
2022-12-05T17:08:27.709Z,2.91
2022-12-05T17:10:54.389Z,2.91
2022-12-05T17:13:21.349Z,2.94
2022-12-05T17:15:48.064Z,2.90
2022-12-05T17:18:17.388Z,2.92
2022-12-05T17:20:48.880Z,2.90
2022-12-05T17:23:16.535Z,2.91
2022-12-05T17:25:45.986Z,2.89
2022-12-05T17:28:12.657Z,2.86
2022-12-05T17:30:39.234Z,2.90
2022-12-05T17:33:06.932Z,2.90
2022-12-05T17:35:34.972Z,2.89
2022-12-05T17:38:02.684Z,2.87
2022-12-05T17:40:29.187Z,2.88
2022-12-05T17:42:55.815Z,2.88
2022-12-05T17:45:22.427Z,2.88
2022-12-05T17:47:49.167Z,2.90
2022-12-05T17:50:22.688Z,2.89
2022-12-05T17:52:51.056Z,2.91
2022-12-05T17:55:20.298Z,2.92
2022-12-05T17:57:47.603Z,2.89
2022-12-05T18:00:16.131Z,2.90
2022-12-05T18:02:43.292Z,2.92
2022-12-05T18:05:10.474Z,2.93
2022-12-05T18:07:37.654Z,2.93
2022-12-05T18:10:12.688Z,2.90
2022-12-05T18:12:39.846Z,2.95
2022-12-05T18:15:07.948Z,2.93
2022-12-05T18:17:34.914Z,2.94
2022-12-05T18:20:01.639Z,2.96
2022-12-05T18:22:28.557Z,2.98
2022-12-05T18:24:55.286Z,2.99
2022-12-05T18:27:23.578Z,2.99
2022-12-05T18:29:51.204Z,3.03
2022-12-05T18:32:18.924Z,3.01
2022-12-05T18:34:45.858Z,3.03
2022-12-05T18:37:12.781Z,3.02
2022-12-05T18:39:39.429Z,3.04
2022-12-05T18:42:11.762Z,3.06
2022-12-05T18:44:43.006Z,3.11
2022-12-05T18:47:09.548Z,3.12
2022-12-05T18:49:36.286Z,3.10
2022-12-05T18:52:03.109Z,3.15
2022-12-05T18:54:29.826Z,3.16
2022-12-05T18:56:56.427Z,3.14
2022-12-05T18:59:23.249Z,3.16
2022-12-05T19:01:51.406Z,3.16
2022-12-05T19:04:19.676Z,3.19
2022-12-05T19:06:48.815Z,3.19
2022-12-05T19:09:17.683Z,3.20
2022-12-05T19:11:47.758Z,3.16
2022-12-05T19:14:15.876Z,3.19
2022-12-05T19:16:42.718Z,3.14
2022-12-05T19:19:13.626Z,3.14
2022-12-05T19:21:41.226Z,3.14
2022-12-05T19:24:10.528Z,3.19
2022-12-05T19:26:37.307Z,3.19
2022-12-05T19:29:04.436Z,3.18
2022-12-05T19:31:31.493Z,3.22
2022-12-05T19:34:00.366Z,3.26
2022-12-05T19:36:29.864Z,3.29
2022-12-05T19:38:56.642Z,3.32
2022-12-05T19:41:25.186Z,3.30
2022-12-05T19:43:52.444Z,3.29
2022-12-05T19:46:21.267Z,3.30
2022-12-05T19:48:48.186Z,3.28
2022-12-05T19:51:14.894Z,3.29
2022-12-05T19:53:44.124Z,3.33
2022-12-05T19:56:14.341Z,3.32
2022-12-05T19:58:41.917Z,3.32
2022-12-05T20:01:10.163Z,3.33
2022-12-05T20:03:37.353Z,3.32
2022-12-05T20:06:06.940Z,3.33
2022-12-05T20:08:34.250Z,3.35
2022-12-05T20:11:05.924Z,3.37
2022-12-05T20:13:48.992Z,3.34
2022-12-05T20:16:20.538Z,3.37
2022-12-05T20:18:48.861Z,3.34
2022-12-05T20:21:17.183Z,3.36
2022-12-05T20:23:43.984Z,3.41
2022-12-05T20:26:14.530Z,3.41
2022-12-05T20:28:41.415Z,3.41
2022-12-05T20:31:09.927Z,3.42
2022-12-05T20:33:37.079Z,3.40
2022-12-05T20:36:06.051Z,3.40
2022-12-05T20:38:33.147Z,3.42
2022-12-05T20:41:00.248Z,3.45
2022-12-05T20:43:28.800Z,3.46
2022-12-05T20:45:56.003Z,3.46
2022-12-05T20:48:25.450Z,3.48
2022-12-05T20:50:53.237Z,3.47
2022-12-05T20:53:22.136Z,3.50
2022-12-05T20:55:48.819Z,3.48
2022-12-05T20:58:15.478Z,3.48
2022-12-05T21:00:43.539Z,3.52
2022-12-05T21:03:16.869Z,3.53
2022-12-05T21:05:44.137Z,3.54
2022-12-05T21:08:10.766Z,3.53
2022-12-05T21:10:37.494Z,3.58
2022-12-05T21:13:04.611Z,3.58
2022-12-05T21:15:31.249Z,3.60
2022-12-05T21:17:59.541Z,3.61
2022-12-05T21:20:26.286Z,3.61
2022-12-05T21:22:52.898Z,3.61
2022-12-05T21:25:19.735Z,3.61
2022-12-05T21:27:46.840Z,3.62
2022-12-05T21:30:13.634Z,3.65
2022-12-05T21:32:40.415Z,3.63
2022-12-05T21:35:11.106Z,3.65
2022-12-05T21:37:39.014Z,3.65
2022-12-05T21:40:07.231Z,3.67
2022-12-05T21:42:33.969Z,3.70
2022-12-05T21:45:01.067Z,3.69
2022-12-05T21:47:28.905Z,3.71
2022-12-05T21:49:55.556Z,3.72
2022-12-05T21:52:23.678Z,3.74
2022-12-05T21:54:50.506Z,3.73
2022-12-05T21:57:20.158Z,3.72
2022-12-05T21:59:47.345Z,3.73
2022-12-05T22:02:14.145Z,3.75
2022-12-05T22:04:40.838Z,3.74
2022-12-05T22:07:07.555Z,3.74
2022-12-05T22:09:35.722Z,3.73
2022-12-05T22:12:05.011Z,3.74
2022-12-05T22:14:31.743Z,3.74
2022-12-05T22:16:58.349Z,3.75
2022-12-05T22:19:24.985Z,3.74
2022-12-05T22:21:51.583Z,3.77
2022-12-05T22:24:18.234Z,3.76
2022-12-05T22:26:46.275Z,3.79
2022-12-05T22:29:12.874Z,3.79
2022-12-05T22:31:39.769Z,3.77
2022-12-05T22:34:06.591Z,3.79
2022-12-05T22:36:33.268Z,3.79
2022-12-05T22:39:00.262Z,3.80
2022-12-05T22:41:29.311Z,3.79
2022-12-05T22:43:59.504Z,3.82
2022-12-05T22:46:27.797Z,3.83
2022-12-05T22:48:55.080Z,3.80
2022-12-05T22:51:22.211Z,3.83
2022-12-05T22:53:50.639Z,3.84
2022-12-05T22:56:18.559Z,3.84
2022-12-05T22:58:46.736Z,3.85
2022-12-05T23:01:16.785Z,3.84
2022-12-05T23:03:45.357Z,3.88
2022-12-05T23:06:13.557Z,3.86
2022-12-05T23:08:44.909Z,3.88
2022-12-05T23:11:11.918Z,3.88
2022-12-05T23:13:38.724Z,3.89
2022-12-05T23:16:06.848Z,3.90
2022-12-05T23:18:36.034Z,3.91
2022-12-05T23:21:03.138Z,3.94
2022-12-05T23:23:30.279Z,3.92
2022-12-05T23:25:57.235Z,3.93
2022-12-05T23:28:23.948Z,3.96
2022-12-05T23:30:50.625Z,3.95
2022-12-05T23:33:17.289Z,3.95
2022-12-05T23:35:45.610Z,3.94
2022-12-05T23:38:12.277Z,3.94
2022-12-05T23:40:39.161Z,3.96
2022-12-05T23:43:05.855Z,3.98
2022-12-05T23:45:32.624Z,3.97
2022-12-05T23:48:03.081Z,3.98
2022-12-05T23:50:31.356Z,4.01
2022-12-05T23:52:59.332Z,4.00
2022-12-05T23:55:26.087Z,4.01
2022-12-05T23:57:52.845Z,4.01
